sensor_id;sensor_type;location;lat;lon;timestamp;temperature;humidity
51337;DHT22;37421;51.176;17.196;2022-07-23T00:01:02;23.70;99.90
51337;DHT22;37421;51.176;17.196;2022-07-23T00:03:27;23.50;99.90
51337;DHT22;37421;51.176;17.196;2022-07-23T00:05:53;23.40;99.90
51337;DHT22;37421;51.176;17.196;2022-07-23T00:08:19;23.10;99.90
51337;DHT22;37421;51.176;17.196;2022-07-23T00:10:45;23.40;99.90
51337;DHT22;37421;51.176;17.196;2022-07-23T00:13:10;23.40;99.90
51337;DHT22;37421;51.176;17.196;2022-07-23T00:15:36;23.50;99.90
51337;DHT22;37421;51.176;17.196;2022-07-23T00:18:02;23.40;99.90
51337;DHT22;37421;51.176;17.196;2022-07-23T00:20:28;23.40;99.90
51337;DHT22;37421;51.176;17.196;2022-07-23T00:22:54;23.30;99.90
51337;DHT22;37421;51.176;17.196;2022-07-23T00:25:21;23.30;99.90
51337;DHT22;37421;51.176;17.196;2022-07-23T00:27:47;23.10;99.90
51337;DHT22;37421;51.176;17.196;2022-07-23T00:30:13;23.00;99.90
51337;DHT22;37421;51.176;17.196;2022-07-23T00:32:45;23.00;99.90
51337;DHT22;37421;51.176;17.196;2022-07-23T00:35:11;23.10;99.90
51337;DHT22;37421;51.176;17.196;2022-07-23T00:37:37;22.90;99.90
51337;DHT22;37421;51.176;17.196;2022-07-23T00:40:02;22.80;99.90
51337;DHT22;37421;51.176;17.196;2022-07-23T00:42:30;22.80;99.90
51337;DHT22;37421;51.176;17.196;2022-07-23T00:44:56;22.90;99.90
51337;DHT22;37421;51.176;17.196;2022-07-23T00:47:21;23.00;99.90
51337;DHT22;37421;51.176;17.196;2022-07-23T00:49:47;22.90;99.90
51337;DHT22;37421;51.176;17.196;2022-07-23T00:52:13;22.70;99.90
51337;DHT22;37421;51.176;17.196;2022-07-23T00:54:39;22.60;99.90
51337;DHT22;37421;51.176;17.196;2022-07-23T00:57:05;22.50;99.90
51337;DHT22;37421;51.176;17.196;2022-07-23T00:59:31;22.40;99.90
51337;DHT22;37421;51.176;17.196;2022-07-23T01:01:56;22.40;99.90
51337;DHT22;37421;51.176;17.196;2022-07-23T01:04:22;22.70;99.90
51337;DHT22;37421;51.176;17.196;2022-07-23T01:06:48;22.70;99.90
51337;DHT22;37421;51.176;17.196;2022-07-23T01:09:14;22.70;99.90
51337;DHT22;37421;51.176;17.196;2022-07-23T01:11:39;22.70;99.90
51337;DHT22;37421;51.176;17.196;2022-07-23T01:14:13;22.70;99.90
51337;DHT22;37421;51.176;17.196;2022-07-23T01:16:39;22.60;99.90
51337;DHT22;37421;51.176;17.196;2022-07-23T01:19:05;22.60;99.90
51337;DHT22;37421;51.176;17.196;2022-07-23T01:21:38;22.40;99.90
51337;DHT22;37421;51.176;17.196;2022-07-23T01:24:04;22.40;99.90
51337;DHT22;37421;51.176;17.196;2022-07-23T01:26:30;22.40;99.90
51337;DHT22;37421;51.176;17.196;2022-07-23T01:28:56;22.40;99.90
51337;DHT22;37421;51.176;17.196;2022-07-23T01:31:21;22.50;99.90
51337;DHT22;37421;51.176;17.196;2022-07-23T01:33:47;22.50;99.90
51337;DHT22;37421;51.176;17.196;2022-07-23T01:36:13;22.50;99.90
51337;DHT22;37421;51.176;17.196;2022-07-23T01:38:39;22.50;99.90
51337;DHT22;37421;51.176;17.196;2022-07-23T01:41:04;22.60;99.90
51337;DHT22;37421;51.176;17.196;2022-07-23T01:43:30;22.70;99.90
51337;DHT22;37421;51.176;17.196;2022-07-23T01:45:56;22.60;99.90
51337;DHT22;37421;51.176;17.196;2022-07-23T01:48:22;22.50;99.90
51337;DHT22;37421;51.176;17.196;2022-07-23T01:50:48;22.30;99.90
51337;DHT22;37421;51.176;17.196;2022-07-23T01:53:14;22.10;99.90
51337;DHT22;37421;51.176;17.196;2022-07-23T01:55:40;21.90;99.90
51337;DHT22;37421;51.176;17.196;2022-07-23T01:58:05;21.80;99.90
51337;DHT22;37421;51.176;17.196;2022-07-23T02:00:31;21.80;99.90
51337;DHT22;37421;51.176;17.196;2022-07-23T02:02:57;21.90;99.90
51337;DHT22;37421;51.176;17.196;2022-07-23T02:05:26;22.00;99.90
51337;DHT22;37421;51.176;17.196;2022-07-23T02:07:54;21.90;99.90
51337;DHT22;37421;51.176;17.196;2022-07-23T02:10:20;21.80;99.90
51337;DHT22;37421;51.176;17.196;2022-07-23T02:12:46;21.90;99.90
51337;DHT22;37421;51.176;17.196;2022-07-23T02:15:12;22.10;99.90
51337;DHT22;37421;51.176;17.196;2022-07-23T02:17:38;22.10;99.90
51337;DHT22;37421;51.176;17.196;2022-07-23T02:20:05;22.10;99.90
51337;DHT22;37421;51.176;17.196;2022-07-23T02:22:31;22.10;99.90
51337;DHT22;37421;51.176;17.196;2022-07-23T02:24:57;22.10;99.90
51337;DHT22;37421;51.176;17.196;2022-07-23T02:27:23;22.00;99.90
51337;DHT22;37421;51.176;17.196;2022-07-23T02:29:48;22.00;99.90
51337;DHT22;37421;51.176;17.196;2022-07-23T02:32:14;21.90;99.90
51337;DHT22;37421;51.176;17.196;2022-07-23T02:34:40;21.90;99.90
51337;DHT22;37421;51.176;17.196;2022-07-23T02:37:06;22.00;99.90
51337;DHT22;37421;51.176;17.196;2022-07-23T02:39:34;22.00;99.90
51337;DHT22;37421;51.176;17.196;2022-07-23T02:42:00;22.00;99.90
51337;DHT22;37421;51.176;17.196;2022-07-23T02:44:26;22.00;99.90
51337;DHT22;37421;51.176;17.196;2022-07-23T02:46:52;22.10;99.90
51337;DHT22;37421;51.176;17.196;2022-07-23T02:49:18;22.20;99.90
51337;DHT22;37421;51.176;17.196;2022-07-23T02:51:43;22.20;99.90
51337;DHT22;37421;51.176;17.196;2022-07-23T02:54:09;22.00;99.90
51337;DHT22;37421;51.176;17.196;2022-07-23T02:56:35;21.90;99.90
51337;DHT22;37421;51.176;17.196;2022-07-23T02:59:01;22.10;99.90
51337;DHT22;37421;51.176;17.196;2022-07-23T03:01:27;22.10;99.90
51337;DHT22;37421;51.176;17.196;2022-07-23T03:03:52;22.20;99.90
51337;DHT22;37421;51.176;17.196;2022-07-23T03:06:18;22.20;99.90
51337;DHT22;37421;51.176;17.196;2022-07-23T03:08:44;22.20;99.90
51337;DHT22;37421;51.176;17.196;2022-07-23T03:11:10;22.10;99.90
51337;DHT22;37421;51.176;17.196;2022-07-23T03:13:39;22.10;99.90
51337;DHT22;37421;51.176;17.196;2022-07-23T03:16:05;22.00;99.90
51337;DHT22;37421;51.176;17.196;2022-07-23T03:18:31;21.90;99.90
51337;DHT22;37421;51.176;17.196;2022-07-23T03:20:57;21.80;99.90
51337;DHT22;37421;51.176;17.196;2022-07-23T03:23:23;21.70;99.90
51337;DHT22;37421;51.176;17.196;2022-07-23T03:25:49;21.70;99.90
51337;DHT22;37421;51.176;17.196;2022-07-23T03:28:15;21.80;99.90
51337;DHT22;37421;51.176;17.196;2022-07-23T03:30:44;21.90;99.90
51337;DHT22;37421;51.176;17.196;2022-07-23T03:33:18;21.90;99.90
51337;DHT22;37421;51.176;17.196;2022-07-23T03:35:45;21.90;99.90
51337;DHT22;37421;51.176;17.196;2022-07-23T03:38:10;21.80;99.90
51337;DHT22;37421;51.176;17.196;2022-07-23T03:40:36;21.90;99.90
51337;DHT22;37421;51.176;17.196;2022-07-23T03:43:02;21.90;99.90
51337;DHT22;37421;51.176;17.196;2022-07-23T03:45:28;21.90;99.90
51337;DHT22;37421;51.176;17.196;2022-07-23T03:47:54;22.00;99.90
51337;DHT22;37421;51.176;17.196;2022-07-23T03:50:20;22.00;99.90
51337;DHT22;37421;51.176;17.196;2022-07-23T03:52:45;22.00;99.90
51337;DHT22;37421;51.176;17.196;2022-07-23T03:55:11;22.10;99.90
51337;DHT22;37421;51.176;17.196;2022-07-23T03:57:37;22.10;99.90
51337;DHT22;37421;51.176;17.196;2022-07-23T04:00:04;22.20;99.90
51337;DHT22;37421;51.176;17.196;2022-07-23T04:02:31;22.20;99.90
51337;DHT22;37421;51.176;17.196;2022-07-23T04:04:56;22.20;99.90
51337;DHT22;37421;51.176;17.196;2022-07-23T04:07:22;22.20;99.90
51337;DHT22;37421;51.176;17.196;2022-07-23T04:09:48;22.30;99.90
51337;DHT22;37421;51.176;17.196;2022-07-23T04:12:14;22.40;99.90
51337;DHT22;37421;51.176;17.196;2022-07-23T04:14:39;22.30;99.90
51337;DHT22;37421;51.176;17.196;2022-07-23T04:17:05;22.30;99.90
51337;DHT22;37421;51.176;17.196;2022-07-23T04:19:31;22.50;99.90
51337;DHT22;37421;51.176;17.196;2022-07-23T04:21:57;22.50;99.90
51337;DHT22;37421;51.176;17.196;2022-07-23T04:24:23;22.70;99.90
51337;DHT22;37421;51.176;17.196;2022-07-23T04:26:49;22.90;99.90
51337;DHT22;37421;51.176;17.196;2022-07-23T04:29:14;23.00;99.90
51337;DHT22;37421;51.176;17.196;2022-07-23T04:31:40;23.00;99.90
51337;DHT22;37421;51.176;17.196;2022-07-23T04:34:06;23.00;99.90
51337;DHT22;37421;51.176;17.196;2022-07-23T04:36:32;23.00;99.90
51337;DHT22;37421;51.176;17.196;2022-07-23T04:38:57;23.10;99.90
51337;DHT22;37421;51.176;17.196;2022-07-23T04:41:23;23.10;99.90
51337;DHT22;37421;51.176;17.196;2022-07-23T04:43:49;23.10;99.90
51337;DHT22;37421;51.176;17.196;2022-07-23T04:46:15;23.20;99.90
51337;DHT22;37421;51.176;17.196;2022-07-23T04:48:41;23.30;99.90
51337;DHT22;37421;51.176;17.196;2022-07-23T04:51:08;23.40;99.90
51337;DHT22;37421;51.176;17.196;2022-07-23T04:53:33;23.40;99.90
51337;DHT22;37421;51.176;17.196;2022-07-23T04:55:59;23.40;99.90
51337;DHT22;37421;51.176;17.196;2022-07-23T04:58:25;23.40;99.90
51337;DHT22;37421;51.176;17.196;2022-07-23T05:00:51;23.40;99.90
51337;DHT22;37421;51.176;17.196;2022-07-23T05:03:17;23.50;99.90
51337;DHT22;37421;51.176;17.196;2022-07-23T05:05:43;23.70;99.90
51337;DHT22;37421;51.176;17.196;2022-07-23T05:08:08;23.90;99.90
51337;DHT22;37421;51.176;17.196;2022-07-23T05:10:34;23.80;99.90
51337;DHT22;37421;51.176;17.196;2022-07-23T05:13:00;23.80;99.90
51337;DHT22;37421;51.176;17.196;2022-07-23T05:15:27;24.00;99.90
51337;DHT22;37421;51.176;17.196;2022-07-23T05:17:52;24.00;99.90
51337;DHT22;37421;51.176;17.196;2022-07-23T05:20:18;24.00;99.90
51337;DHT22;37421;51.176;17.196;2022-07-23T05:22:44;24.00;99.90
51337;DHT22;37421;51.176;17.196;2022-07-23T05:25:10;24.00;99.90
51337;DHT22;37421;51.176;17.196;2022-07-23T05:27:35;24.00;99.90
51337;DHT22;37421;51.176;17.196;2022-07-23T05:30:02;24.10;99.90
51337;DHT22;37421;51.176;17.196;2022-07-23T05:32:27;24.30;99.90
51337;DHT22;37421;51.176;17.196;2022-07-23T05:34:53;24.30;99.90
51337;DHT22;37421;51.176;17.196;2022-07-23T05:37:19;24.30;99.90
51337;DHT22;37421;51.176;17.196;2022-07-23T05:39:44;24.30;99.90
51337;DHT22;37421;51.176;17.196;2022-07-23T05:42:10;24.30;99.90
51337;DHT22;37421;51.176;17.196;2022-07-23T05:44:36;24.40;99.90
51337;DHT22;37421;51.176;17.196;2022-07-23T05:47:02;24.50;99.90
51337;DHT22;37421;51.176;17.196;2022-07-23T05:49:28;24.50;99.90
51337;DHT22;37421;51.176;17.196;2022-07-23T05:51:54;24.60;99.90
51337;DHT22;37421;51.176;17.196;2022-07-23T05:54:19;24.60;99.90
51337;DHT22;37421;51.176;17.196;2022-07-23T05:56:45;24.60;99.90
51337;DHT22;37421;51.176;17.196;2022-07-23T05:59:14;24.70;99.90
51337;DHT22;37421;51.176;17.196;2022-07-23T06:01:40;24.70;99.90
51337;DHT22;37421;51.176;17.196;2022-07-23T06:04:06;24.80;99.90
51337;DHT22;37421;51.176;17.196;2022-07-23T06:06:32;24.80;99.90
51337;DHT22;37421;51.176;17.196;2022-07-23T06:08:57;24.90;99.90
51337;DHT22;37421;51.176;17.196;2022-07-23T06:11:23;24.90;99.90
51337;DHT22;37421;51.176;17.196;2022-07-23T06:13:49;24.90;99.90
51337;DHT22;37421;51.176;17.196;2022-07-23T06:16:15;25.00;99.90
51337;DHT22;37421;51.176;17.196;2022-07-23T06:18:41;25.00;99.90
51337;DHT22;37421;51.176;17.196;2022-07-23T06:21:06;25.10;99.90
51337;DHT22;37421;51.176;17.196;2022-07-23T06:23:32;25.10;99.90
51337;DHT22;37421;51.176;17.196;2022-07-23T06:25:58;25.20;99.90
51337;DHT22;37421;51.176;17.196;2022-07-23T06:28:24;25.20;99.90
51337;DHT22;37421;51.176;17.196;2022-07-23T06:30:50;25.20;99.90
51337;DHT22;37421;51.176;17.196;2022-07-23T06:33:15;25.40;99.60
51337;DHT22;37421;51.176;17.196;2022-07-23T06:35:41;25.40;99.90
51337;DHT22;37421;51.176;17.196;2022-07-23T06:38:07;25.40;99.90
51337;DHT22;37421;51.176;17.196;2022-07-23T06:40:33;25.40;99.90
51337;DHT22;37421;51.176;17.196;2022-07-23T06:42:59;25.30;99.90
51337;DHT22;37421;51.176;17.196;2022-07-23T06:45:25;25.30;99.90
51337;DHT22;37421;51.176;17.196;2022-07-23T06:47:50;25.40;99.90
51337;DHT22;37421;51.176;17.196;2022-07-23T06:50:16;25.50;99.90
51337;DHT22;37421;51.176;17.196;2022-07-23T06:52:42;25.60;99.90
51337;DHT22;37421;51.176;17.196;2022-07-23T06:55:08;25.70;99.90
51337;DHT22;37421;51.176;17.196;2022-07-23T06:57:33;25.70;99.90
51337;DHT22;37421;51.176;17.196;2022-07-23T06:59:59;25.90;99.20
51337;DHT22;37421;51.176;17.196;2022-07-23T07:02:25;26.00;99.30
51337;DHT22;37421;51.176;17.196;2022-07-23T07:04:51;25.90;98.90
51337;DHT22;37421;51.176;17.196;2022-07-23T07:07:17;25.90;99.20
51337;DHT22;37421;51.176;17.196;2022-07-23T07:09:43;26.00;98.70
51337;DHT22;37421;51.176;17.196;2022-07-23T07:12:10;26.10;99.40
51337;DHT22;37421;51.176;17.196;2022-07-23T07:14:37;26.20;98.90
51337;DHT22;37421;51.176;17.196;2022-07-23T07:17:03;26.30;99.20
51337;DHT22;37421;51.176;17.196;2022-07-23T07:19:28;26.40;99.70
51337;DHT22;37421;51.176;17.196;2022-07-23T07:21:54;26.50;99.40
51337;DHT22;37421;51.176;17.196;2022-07-23T07:24:20;26.40;98.70
51337;DHT22;37421;51.176;17.196;2022-07-23T07:26:46;26.50;99.00
51337;DHT22;37421;51.176;17.196;2022-07-23T07:29:11;26.50;98.70
51337;DHT22;37421;51.176;17.196;2022-07-23T07:31:37;26.60;99.30
51337;DHT22;37421;51.176;17.196;2022-07-23T07:34:03;26.60;98.60
51337;DHT22;37421;51.176;17.196;2022-07-23T07:36:29;26.60;98.40
51337;DHT22;37421;51.176;17.196;2022-07-23T07:38:55;26.60;98.40
51337;DHT22;37421;51.176;17.196;2022-07-23T07:41:20;26.60;98.80
51337;DHT22;37421;51.176;17.196;2022-07-23T07:43:49;26.80;99.00
51337;DHT22;37421;51.176;17.196;2022-07-23T07:46:15;26.80;98.60
51337;DHT22;37421;51.176;17.196;2022-07-23T07:48:41;26.80;99.10
51337;DHT22;37421;51.176;17.196;2022-07-23T07:51:07;26.90;98.10
51337;DHT22;37421;51.176;17.196;2022-07-23T07:53:33;26.90;98.60
51337;DHT22;37421;51.176;17.196;2022-07-23T07:55:58;27.00;98.00
51337;DHT22;37421;51.176;17.196;2022-07-23T07:58:24;27.10;97.90
51337;DHT22;37421;51.176;17.196;2022-07-23T08:00:50;27.10;98.20
51337;DHT22;37421;51.176;17.196;2022-07-23T08:03:16;27.20;97.80
51337;DHT22;37421;51.176;17.196;2022-07-23T08:05:42;27.20;98.00
51337;DHT22;37421;51.176;17.196;2022-07-23T08:08:08;27.30;98.20
51337;DHT22;37421;51.176;17.196;2022-07-23T08:10:35;27.40;97.90
51337;DHT22;37421;51.176;17.196;2022-07-23T08:13:01;27.50;98.10
51337;DHT22;37421;51.176;17.196;2022-07-23T08:15:27;27.50;97.50
51337;DHT22;37421;51.176;17.196;2022-07-23T08:17:53;27.50;97.60
51337;DHT22;37421;51.176;17.196;2022-07-23T08:20:20;27.60;97.90
51337;DHT22;37421;51.176;17.196;2022-07-23T08:22:47;27.70;97.50
51337;DHT22;37421;51.176;17.196;2022-07-23T08:25:15;27.70;96.80
51337;DHT22;37421;51.176;17.196;2022-07-23T08:27:41;27.70;98.00
51337;DHT22;37421;51.176;17.196;2022-07-23T08:30:08;27.80;97.60
51337;DHT22;37421;51.176;17.196;2022-07-23T08:32:45;27.60;96.90
51337;DHT22;37421;51.176;17.196;2022-07-23T08:35:14;27.60;97.20
51337;DHT22;37421;51.176;17.196;2022-07-23T08:37:39;27.70;97.30
51337;DHT22;37421;51.176;17.196;2022-07-23T08:40:05;27.60;97.30
51337;DHT22;37421;51.176;17.196;2022-07-23T08:42:32;27.60;97.10
51337;DHT22;37421;51.176;17.196;2022-07-23T08:45:00;27.70;97.70
51337;DHT22;37421;51.176;17.196;2022-07-23T08:47:27;27.70;97.40
51337;DHT22;37421;51.176;17.196;2022-07-23T08:49:53;27.80;97.50
51337;DHT22;37421;51.176;17.196;2022-07-23T08:52:20;27.80;97.90
51337;DHT22;37421;51.176;17.196;2022-07-23T08:54:45;27.90;98.00
51337;DHT22;37421;51.176;17.196;2022-07-23T08:57:12;28.00;96.80
51337;DHT22;37421;51.176;17.196;2022-07-23T08:59:37;28.10;96.80
51337;DHT22;37421;51.176;17.196;2022-07-23T09:02:03;28.10;97.50
51337;DHT22;37421;51.176;17.196;2022-07-23T09:04:30;28.10;97.30
51337;DHT22;37421;51.176;17.196;2022-07-23T09:06:56;28.10;97.50
51337;DHT22;37421;51.176;17.196;2022-07-23T09:09:22;28.10;97.00
51337;DHT22;37421;51.176;17.196;2022-07-23T09:11:48;28.20;96.90
51337;DHT22;37421;51.176;17.196;2022-07-23T09:14:43;28.20;96.90
51337;DHT22;37421;51.176;17.196;2022-07-23T09:17:12;28.30;96.60
51337;DHT22;37421;51.176;17.196;2022-07-23T09:19:39;28.20;97.30
51337;DHT22;37421;51.176;17.196;2022-07-23T09:22:22;28.20;96.90
51337;DHT22;37421;51.176;17.196;2022-07-23T09:27:48;28.30;96.70
51337;DHT22;37421;51.176;17.196;2022-07-23T09:30:15;28.30;96.90
51337;DHT22;37421;51.176;17.196;2022-07-23T09:32:41;28.30;96.80
51337;DHT22;37421;51.176;17.196;2022-07-23T09:35:07;28.30;96.70
51337;DHT22;37421;51.176;17.196;2022-07-23T09:37:33;28.30;97.00
51337;DHT22;37421;51.176;17.196;2022-07-23T09:40:06;28.30;96.60
51337;DHT22;37421;51.176;17.196;2022-07-23T09:42:32;28.30;96.70
51337;DHT22;37421;51.176;17.196;2022-07-23T09:44:58;28.30;96.40
51337;DHT22;37421;51.176;17.196;2022-07-23T09:47:33;28.30;97.20
51337;DHT22;37421;51.176;17.196;2022-07-23T09:50:09;28.30;96.30
51337;DHT22;37421;51.176;17.196;2022-07-23T09:52:36;28.30;95.90
51337;DHT22;37421;51.176;17.196;2022-07-23T09:55:04;28.20;96.30
51337;DHT22;37421;51.176;17.196;2022-07-23T09:57:31;28.20;96.10
51337;DHT22;37421;51.176;17.196;2022-07-23T09:59:58;28.20;96.00
51337;DHT22;37421;51.176;17.196;2022-07-23T10:02:25;28.00;96.20
51337;DHT22;37421;51.176;17.196;2022-07-23T10:04:53;27.90;96.10
51337;DHT22;37421;51.176;17.196;2022-07-23T10:07:23;27.80;96.40
51337;DHT22;37421;51.176;17.196;2022-07-23T10:09:52;27.80;97.10
51337;DHT22;37421;51.176;17.196;2022-07-23T10:12:18;27.70;96.70
51337;DHT22;37421;51.176;17.196;2022-07-23T10:15:03;27.70;96.80
51337;DHT22;37421;51.176;17.196;2022-07-23T10:17:30;27.60;97.10
51337;DHT22;37421;51.176;17.196;2022-07-23T10:19:56;27.50;97.10
51337;DHT22;37421;51.176;17.196;2022-07-23T10:22:23;27.40;97.20
51337;DHT22;37421;51.176;17.196;2022-07-23T10:40:55;26.30;97.80
51337;DHT22;37421;51.176;17.196;2022-07-23T10:43:21;26.10;98.50
51337;DHT22;37421;51.176;17.196;2022-07-23T10:45:47;25.70;99.90
51337;DHT22;37421;51.176;17.196;2022-07-23T10:48:23;25.30;99.90
51337;DHT22;37421;51.176;17.196;2022-07-23T10:51:10;25.00;99.90
51337;DHT22;37421;51.176;17.196;2022-07-23T10:53:52;24.80;99.90
51337;DHT22;37421;51.176;17.196;2022-07-23T10:59:03;24.50;99.90
51337;DHT22;37421;51.176;17.196;2022-07-23T11:01:36;24.40;99.90
51337;DHT22;37421;51.176;17.196;2022-07-23T11:04:02;24.30;99.90
51337;DHT22;37421;51.176;17.196;2022-07-23T11:09:29;24.30;99.90
51337;DHT22;37421;51.176;17.196;2022-07-23T11:17:24;24.30;99.90
51337;DHT22;37421;51.176;17.196;2022-07-23T11:22:38;24.30;99.90
51337;DHT22;37421;51.176;17.196;2022-07-23T11:25:04;24.30;99.90
51337;DHT22;37421;51.176;17.196;2022-07-23T11:27:39;24.20;99.90
51337;DHT22;37421;51.176;17.196;2022-07-23T11:30:09;24.10;99.90
51337;DHT22;37421;51.176;17.196;2022-07-23T11:32:39;24.10;99.90
51337;DHT22;37421;51.176;17.196;2022-07-23T11:35:18;24.20;99.90
51337;DHT22;37421;51.176;17.196;2022-07-23T11:37:45;24.30;99.90
51337;DHT22;37421;51.176;17.196;2022-07-23T11:40:13;24.30;99.90
51337;DHT22;37421;51.176;17.196;2022-07-23T11:42:50;24.30;99.90
51337;DHT22;37421;51.176;17.196;2022-07-23T11:45:17;24.30;99.90
51337;DHT22;37421;51.176;17.196;2022-07-23T11:47:42;24.40;99.90
51337;DHT22;37421;51.176;17.196;2022-07-23T11:50:09;24.40;99.90
51337;DHT22;37421;51.176;17.196;2022-07-23T11:52:34;24.40;99.90
51337;DHT22;37421;51.176;17.196;2022-07-23T11:57:28;24.40;99.90
51337;DHT22;37421;51.176;17.196;2022-07-23T11:59:58;24.30;99.90
51337;DHT22;37421;51.176;17.196;2022-07-23T12:02:24;24.30;99.90
51337;DHT22;37421;51.176;17.196;2022-07-23T12:04:50;24.40;99.90
51337;DHT22;37421;51.176;17.196;2022-07-23T12:07:27;24.50;99.90
51337;DHT22;37421;51.176;17.196;2022-07-23T12:09:53;24.60;99.90
51337;DHT22;37421;51.176;17.196;2022-07-23T12:12:19;24.50;99.90
51337;DHT22;37421;51.176;17.196;2022-07-23T12:14:53;24.40;99.90
51337;DHT22;37421;51.176;17.196;2022-07-23T12:17:19;24.40;99.90
51337;DHT22;37421;51.176;17.196;2022-07-23T12:19:45;24.60;99.90
51337;DHT22;37421;51.176;17.196;2022-07-23T12:22:11;24.70;99.90
51337;DHT22;37421;51.176;17.196;2022-07-23T12:24:56;24.60;99.90
51337;DHT22;37421;51.176;17.196;2022-07-23T12:27:23;24.60;99.90
51337;DHT22;37421;51.176;17.196;2022-07-23T12:29:49;24.70;99.90
51337;DHT22;37421;51.176;17.196;2022-07-23T12:32:18;25.00;99.90
51337;DHT22;37421;51.176;17.196;2022-07-23T12:34:45;25.40;99.90
51337;DHT22;37421;51.176;17.196;2022-07-23T12:37:33;25.60;99.90
51337;DHT22;37421;51.176;17.196;2022-07-23T12:40:17;25.60;99.90
51337;DHT22;37421;51.176;17.196;2022-07-23T12:42:43;25.70;99.90
51337;DHT22;37421;51.176;17.196;2022-07-23T12:45:10;25.70;99.90
51337;DHT22;37421;51.176;17.196;2022-07-23T12:55:49;26.30;99.90
51337;DHT22;37421;51.176;17.196;2022-07-23T12:58:16;26.50;99.90
51337;DHT22;37421;51.176;17.196;2022-07-23T13:01:03;26.60;99.90
51337;DHT22;37421;51.176;17.196;2022-07-23T13:03:31;26.50;99.90
51337;DHT22;37421;51.176;17.196;2022-07-23T13:05:59;26.70;99.90
51337;DHT22;37421;51.176;17.196;2022-07-23T13:08:26;26.70;99.90
51337;DHT22;37421;51.176;17.196;2022-07-23T13:10:52;26.70;99.90
51337;DHT22;37421;51.176;17.196;2022-07-23T13:13:22;26.70;99.90
51337;DHT22;37421;51.176;17.196;2022-07-23T13:15:48;26.80;99.90
51337;DHT22;37421;51.176;17.196;2022-07-23T13:18:14;26.80;99.90
51337;DHT22;37421;51.176;17.196;2022-07-23T13:20:40;26.80;99.90
51337;DHT22;37421;51.176;17.196;2022-07-23T13:23:06;26.90;99.90
51337;DHT22;37421;51.176;17.196;2022-07-23T13:25:32;27.00;99.90
51337;DHT22;37421;51.176;17.196;2022-07-23T13:27:58;27.00;99.90
51337;DHT22;37421;51.176;17.196;2022-07-23T13:30:24;27.00;99.90
51337;DHT22;37421;51.176;17.196;2022-07-23T13:32:50;27.10;99.90
51337;DHT22;37421;51.176;17.196;2022-07-23T13:35:18;27.10;99.90
51337;DHT22;37421;51.176;17.196;2022-07-23T13:37:43;27.10;99.90
51337;DHT22;37421;51.176;17.196;2022-07-23T13:40:10;27.10;99.90
51337;DHT22;37421;51.176;17.196;2022-07-23T13:42:36;26.90;99.90
51337;DHT22;37421;51.176;17.196;2022-07-23T13:45:02;26.90;99.90
51337;DHT22;37421;51.176;17.196;2022-07-23T13:47:29;26.80;99.90
51337;DHT22;37421;51.176;17.196;2022-07-23T13:49:54;26.90;99.90
51337;DHT22;37421;51.176;17.196;2022-07-23T13:52:20;27.10;99.90
51337;DHT22;37421;51.176;17.196;2022-07-23T13:54:46;27.10;99.90
51337;DHT22;37421;51.176;17.196;2022-07-23T13:57:11;27.10;99.90
51337;DHT22;37421;51.176;17.196;2022-07-23T13:59:37;27.10;99.90
51337;DHT22;37421;51.176;17.196;2022-07-23T14:02:03;27.10;99.90
51337;DHT22;37421;51.176;17.196;2022-07-23T14:04:29;27.20;99.90
51337;DHT22;37421;51.176;17.196;2022-07-23T14:06:55;27.10;99.90
51337;DHT22;37421;51.176;17.196;2022-07-23T14:09:21;27.30;99.90
51337;DHT22;37421;51.176;17.196;2022-07-23T14:11:47;27.40;99.90
51337;DHT22;37421;51.176;17.196;2022-07-23T14:14:13;27.40;99.90
51337;DHT22;37421;51.176;17.196;2022-07-23T14:16:39;27.60;99.90
51337;DHT22;37421;51.176;17.196;2022-07-23T14:19:04;27.70;99.90
51337;DHT22;37421;51.176;17.196;2022-07-23T14:21:30;27.70;99.90
51337;DHT22;37421;51.176;17.196;2022-07-23T14:23:56;27.40;99.90
51337;DHT22;37421;51.176;17.196;2022-07-23T14:26:22;27.40;99.90
51337;DHT22;37421;51.176;17.196;2022-07-23T14:28:47;27.40;99.90
51337;DHT22;37421;51.176;17.196;2022-07-23T14:31:13;27.40;99.90
51337;DHT22;37421;51.176;17.196;2022-07-23T14:33:39;27.30;99.90
51337;DHT22;37421;51.176;17.196;2022-07-23T14:36:05;27.20;99.90
51337;DHT22;37421;51.176;17.196;2022-07-23T14:38:30;27.10;99.90
51337;DHT22;37421;51.176;17.196;2022-07-23T14:40:57;27.20;99.90
51337;DHT22;37421;51.176;17.196;2022-07-23T14:43:23;27.30;99.90
51337;DHT22;37421;51.176;17.196;2022-07-23T14:45:49;27.10;99.90
51337;DHT22;37421;51.176;17.196;2022-07-23T14:48:14;27.00;99.90
51337;DHT22;37421;51.176;17.196;2022-07-23T14:50:40;27.00;99.90
51337;DHT22;37421;51.176;17.196;2022-07-23T14:53:06;27.00;99.90
51337;DHT22;37421;51.176;17.196;2022-07-23T14:55:32;27.10;99.90
51337;DHT22;37421;51.176;17.196;2022-07-23T14:57:58;27.00;99.90
51337;DHT22;37421;51.176;17.196;2022-07-23T15:00:24;27.00;99.90
51337;DHT22;37421;51.176;17.196;2022-07-23T15:02:50;26.90;99.90
51337;DHT22;37421;51.176;17.196;2022-07-23T15:05:16;26.90;99.90
51337;DHT22;37421;51.176;17.196;2022-07-23T15:07:42;26.90;99.90
51337;DHT22;37421;51.176;17.196;2022-07-23T15:10:08;26.90;99.90
51337;DHT22;37421;51.176;17.196;2022-07-23T15:12:33;26.90;99.90
51337;DHT22;37421;51.176;17.196;2022-07-23T15:14:59;26.80;99.90
51337;DHT22;37421;51.176;17.196;2022-07-23T15:17:25;26.90;99.90
51337;DHT22;37421;51.176;17.196;2022-07-23T15:19:51;26.80;99.90
51337;DHT22;37421;51.176;17.196;2022-07-23T15:22:17;26.80;99.90
51337;DHT22;37421;51.176;17.196;2022-07-23T15:24:42;26.80;99.90
51337;DHT22;37421;51.176;17.196;2022-07-23T15:27:08;26.80;99.90
51337;DHT22;37421;51.176;17.196;2022-07-23T15:29:34;26.80;99.90
51337;DHT22;37421;51.176;17.196;2022-07-23T15:32:00;26.70;99.90
51337;DHT22;37421;51.176;17.196;2022-07-23T15:34:26;26.80;99.90
51337;DHT22;37421;51.176;17.196;2022-07-23T15:36:52;26.80;99.90
51337;DHT22;37421;51.176;17.196;2022-07-23T15:39:17;26.80;99.90
51337;DHT22;37421;51.176;17.196;2022-07-23T15:41:43;26.90;99.90
51337;DHT22;37421;51.176;17.196;2022-07-23T15:44:09;26.90;99.90
51337;DHT22;37421;51.176;17.196;2022-07-23T15:46:35;26.90;99.90
51337;DHT22;37421;51.176;17.196;2022-07-23T15:49:01;26.80;99.90
51337;DHT22;37421;51.176;17.196;2022-07-23T15:51:27;26.80;99.90
51337;DHT22;37421;51.176;17.196;2022-07-23T15:53:54;26.80;99.90
51337;DHT22;37421;51.176;17.196;2022-07-23T15:56:20;26.70;99.90